Time;durP1;ratioP1;P1;durP2;ratioP2;P2;SDS_P1;SDS_P2;PMS_P1;PMS_P2;Temp;Humidity;BMP_temperature;BMP_pressure;BME280_temperature;BME280_humidity;BME280_pressure;Samples;Min_cycle;Max_cycle;Signal;HPM_P1;HPM_P2
2023/11/14 00:00:06;;;;;;;20.25;13.73;;;17.20;67.60;;;;;;338884;29;984;-56
2023/11/14 00:00:18;;;;;;;19.33;13.88;;;17.20;67.60;;;;;;338961;29;846;-55
2023/11/14 00:00:29;;;;;;;19.98;14.20;;;17.20;67.60;;;;;;338980;29;1117;-55
2023/11/14 00:00:40;;;;;;;20.55;14.20;;;17.20;67.60;;;;;;338827;29;855;-55
2023/11/14 00:00:50;;;;;;;19.45;13.65;;;17.20;67.60;;;;;;338890;29;1032;-55
2023/11/14 00:01:02;;;;;;;19.10;13.30;;;17.20;67.60;;;;;;338793;29;1081;-56
2023/11/14 00:01:13;;;;;;;18.65;13.15;;;17.20;67.70;;;;;;338830;29;1586;-54
2023/11/14 00:01:24;;;;;;;18.58;13.10;;;17.20;67.70;;;;;;338940;29;1107;-57
2023/11/14 00:01:35;;;;;;;18.55;12.90;;;17.20;67.70;;;;;;338963;29;1040;-55
2023/11/14 00:01:46;;;;;;;19.00;12.68;;;17.20;67.70;;;;;;338848;29;902;-56
2023/11/14 00:01:57;;;;;;;19.33;12.38;;;17.20;67.80;;;;;;338940;29;1597;-56
2023/11/14 00:02:09;;;;;;;18.95;12.50;;;17.20;67.70;;;;;;338960;29;883;-56
2023/11/14 00:02:19;;;;;;;19.05;12.60;;;17.20;67.80;;;;;;338863;29;996;-53
2023/11/14 00:02:30;;;;;;;18.33;12.65;;;17.20;67.80;;;;;;338925;29;866;-56
2023/11/14 00:02:41;;;;;;;22.17;12.98;;;17.20;67.80;;;;;;338940;29;1028;-56
2023/11/14 00:02:52;;;;;;;22.00;12.93;;;17.20;67.80;;;;;;338783;29;1069;-56
2023/11/14 00:03:04;;;;;;;20.87;12.53;;;17.20;67.70;;;;;;338903;29;981;-55
2023/11/14 00:03:15;;;;;;;19.08;12.38;;;17.20;67.70;;;;;;338886;29;1194;-55
2023/11/14 00:03:28;;;;;;;19.23;12.77;;;17.20;67.70;;;;;;338810;29;993;-55
2023/11/14 00:03:39;;;;;;;20.13;13.02;;;17.20;67.70;;;;;;338893;29;1043;-55
2023/11/14 00:03:50;;;;;;;19.95;12.38;;;17.20;67.70;;;;;;338960;29;1099;-56
2023/11/14 00:04:00;;;;;;;18.55;12.50;;;17.20;67.70;;;;;;338899;29;830;-55
2023/11/14 00:04:12;;;;;;;16.40;12.33;;;17.20;67.80;;;;;;338829;29;1091;-55
2023/11/14 00:04:23;;;;;;;18.08;12.74;;;17.20;67.70;;;;;;338856;29;2578;-55
2023/11/14 00:04:35;;;;;;;17.63;12.53;;;17.20;67.70;;;;;;338824;29;1554;-54
2023/11/14 00:04:46;;;;;;;17.83;12.30;;;17.20;67.80;;;;;;338886;29;1498;-56
2023/11/14 00:04:56;;;;;;;17.88;12.40;;;17.20;67.80;;;;;;338859;29;950;-55
2023/11/14 00:05:07;;;;;;;18.98;12.48;;;17.20;67.80;;;;;;338839;29;1085;-55
2023/11/14 00:05:18;;;;;;;19.70;12.38;;;17.20;67.80;;;;;;338887;29;1092;-55
2023/11/14 00:05:34;;;;;;;19.43;11.93;;;17.20;67.90;;;;;;338854;29;884;-55
2023/11/14 00:05:46;;;;;;;18.55;11.93;;;17.20;67.90;;;;;;338877;29;1108;-55
2023/11/14 00:05:57;;;;;;;18.02;11.77;;;17.20;68.00;;;;;;338933;29;850;-55
2023/11/14 00:06:08;;;;;;;18.45;11.65;;;17.20;68.00;;;;;;338974;29;1051;-55
2023/11/14 00:06:18;;;;;;;18.55;11.63;;;17.20;68.00;;;;;;338944;29;1076;-55
2023/11/14 00:06:29;;;;;;;18.42;11.85;;;17.20;68.00;;;;;;338807;29;2499;-54
2023/11/14 00:06:40;;;;;;;17.92;12.20;;;17.20;68.00;;;;;;338745;29;1367;-55
2023/11/14 00:06:50;;;;;;;20.17;11.90;;;17.20;68.00;;;;;;338765;29;1910;-55
2023/11/14 00:07:05;;;;;;;20.23;12.25;;;17.20;68.00;;;;;;338868;29;1134;-54
2023/11/14 00:07:16;;;;;;;19.08;11.80;;;17.20;68.00;;;;;;338880;29;1072;-57
2023/11/14 00:07:27;;;;;;;19.10;11.30;;;17.20;68.00;;;;;;338815;29;992;-56
2023/11/14 00:07:38;;;;;;;19.92;10.98;;;17.20;68.00;;;;;;338915;29;1009;-55
2023/11/14 00:07:49;;;;;;;19.45;11.20;;;17.20;68.00;;;;;;338938;29;996;-54
2023/11/14 00:08:01;;;;;;;19.85;11.25;;;17.20;68.00;;;;;;338932;29;1008;-55
2023/11/14 00:08:11;;;;;;;19.02;11.48;;;17.20;68.00;;;;;;338870;29;954;-55
2023/11/14 00:08:22;;;;;;;18.47;11.60;;;17.20;68.00;;;;;;338882;29;1029;-54
2023/11/14 00:08:33;;;;;;;16.77;11.82;;;17.20;68.00;;;;;;338895;29;1151;-55
2023/11/14 00:08:43;;;;;;;18.73;11.50;;;17.20;68.00;;;;;;338855;29;810;-56
2023/11/14 00:08:54;;;;;;;19.23;11.50;;;17.20;68.00;;;;;;338883;29;1143;-55
2023/11/14 00:09:05;;;;;;;19.67;10.88;;;17.10;68.00;;;;;;338839;29;1175;-55
2023/11/14 00:09:17;;;;;;;16.65;10.70;;;17.20;68.00;;;;;;338903;29;1148;-55
2023/11/14 00:09:28;;;;;;;17.42;10.80;;;17.20;68.00;;;;;;338889;29;846;-55
2023/11/14 00:09:39;;;;;;;16.77;10.75;;;17.20;68.10;;;;;;338909;29;1108;-55
2023/11/14 00:09:50;;;;;;;16.42;10.65;;;17.20;68.00;;;;;;338797;29;1109;-55
2023/11/14 00:10:03;;;;;;;15.20;10.65;;;17.20;68.10;;;;;;338865;29;1227;-56
2023/11/14 00:10:14;;;;;;;16.17;10.95;;;17.20;68.00;;;;;;338883;29;981;-54
2023/11/14 00:10:24;;;;;;;17.15;10.77;;;17.20;68.00;;;;;;338869;29;1083;-55
2023/11/14 00:10:35;;;;;;;18.38;11.02;;;17.20;68.00;;;;;;338790;29;1085;-55
2023/11/14 00:10:46;;;;;;;17.17;11.13;;;17.10;68.00;;;;;;338875;29;1144;-55
2023/11/14 00:10:57;;;;;;;18.42;11.63;;;17.20;68.10;;;;;;338879;29;846;-55
2023/11/14 00:11:10;;;;;;;17.10;11.13;;;17.20;68.00;;;;;;338843;29;1025;-55
2023/11/14 00:11:22;;;;;;;19.17;11.27;;;17.20;68.10;;;;;;338823;29;1107;-55
2023/11/14 00:11:34;;;;;;;19.55;11.13;;;17.20;68.00;;;;;;338907;29;1000;-54
2023/11/14 00:11:45;;;;;;;19.50;11.15;;;17.20;68.00;;;;;;338829;29;1651;-54
2023/11/14 00:11:56;;;;;;;16.70;10.88;;;17.20;68.00;;;;;;338865;29;966;-55
2023/11/14 00:12:07;;;;;;;16.73;11.27;;;17.20;68.00;;;;;;338835;29;1050;-54
2023/11/14 00:12:21;;;;;;;17.88;11.32;;;17.20;68.00;;;;;;338852;29;993;-55
2023/11/14 00:12:31;;;;;;;18.70;11.35;;;17.20;68.10;;;;;;338800;29;982;-55
2023/11/14 00:12:42;;;;;;;17.70;11.30;;;17.20;68.10;;;;;;338908;29;988;-55
2023/11/14 00:12:53;;;;;;;16.83;11.10;;;17.20;68.10;;;;;;338833;29;929;-57
2023/11/14 00:13:04;;;;;;;18.52;11.13;;;17.20;68.20;;;;;;338901;29;1075;-56
2023/11/14 00:13:14;;;;;;;17.08;10.98;;;17.20;68.20;;;;;;338681;29;1528;-56
2023/11/14 00:13:25;;;;;;;18.13;11.20;;;17.20;68.20;;;;;;338735;29;1013;-55
2023/11/14 00:13:36;;;;;;;16.45;11.38;;;17.20;68.20;;;;;;338687;29;1075;-54
2023/11/14 00:13:47;;;;;;;17.52;11.50;;;17.20;68.10;;;;;;338718;29;945;-55
2023/11/14 00:13:58;;;;;;;17.10;11.55;;;17.20;68.10;;;;;;338804;29;819;-55
2023/11/14 00:14:08;;;;;;;16.80;11.40;;;17.20;68.10;;;;;;338826;29;1101;-54
2023/11/14 00:14:20;;;;;;;16.63;10.95;;;17.20;68.00;;;;;;338845;29;1148;-54
2023/11/14 00:14:32;;;;;;;17.00;11.02;;;17.20;68.00;;;;;;338859;29;1211;-55
2023/11/14 00:14:44;;;;;;;16.92;11.45;;;17.20;68.00;;;;;;338926;29;921;-56
2023/11/14 00:14:55;;;;;;;16.48;11.65;;;17.20;68.00;;;;;;338779;29;1344;-57
2023/11/14 00:15:06;;;;;;;16.48;11.25;;;17.20;68.00;;;;;;338893;29;1083;-55
2023/11/14 00:15:18;;;;;;;16.38;11.07;;;17.20;68.00;;;;;;338891;29;1001;-54
2023/11/14 00:15:31;;;;;;;15.90;11.15;;;17.20;68.00;;;;;;338935;29;1005;-54
2023/11/14 00:15:42;;;;;;;15.88;11.27;;;17.20;68.00;;;;;;338782;29;1419;-54
2023/11/14 00:15:53;;;;;;;18.33;11.73;;;17.20;68.10;;;;;;338875;29;1001;-55
2023/11/14 00:16:04;;;;;;;17.48;11.70;;;17.20;68.10;;;;;;338805;29;1036;-55
2023/11/14 00:16:15;;;;;;;18.58;11.63;;;17.20;68.10;;;;;;338843;29;1063;-54
2023/11/14 00:16:26;;;;;;;18.27;11.43;;;17.20;68.10;;;;;;338881;29;1089;-55
2023/11/14 00:16:36;;;;;;;18.53;11.47;;;17.20;68.00;;;;;;338874;29;985;-55
2023/11/14 00:16:47;;;;;;;16.73;11.40;;;17.20;68.00;;;;;;338804;29;1108;-55
2023/11/14 00:16:58;;;;;;;18.35;11.90;;;17.20;67.90;;;;;;338833;29;1017;-56
2023/11/14 00:17:09;;;;;;;18.85;12.15;;;17.20;67.90;;;;;;338927;29;882;-56
2023/11/14 00:17:20;;;;;;;18.45;12.20;;;17.20;67.90;;;;;;338903;29;1322;-55
2023/11/14 00:17:30;;;;;;;17.57;12.07;;;17.20;67.90;;;;;;338834;29;1464;-55
2023/11/14 00:17:41;;;;;;;16.65;11.82;;;17.20;67.90;;;;;;338855;29;948;-54
2023/11/14 00:17:52;;;;;;;15.73;11.55;;;17.20;67.90;;;;;;338898;29;1061;-55
2023/11/14 00:18:03;;;;;;;16.55;11.63;;;17.20;67.90;;;;;;338891;29;1075;-55
2023/11/14 00:18:14;;;;;;;17.98;11.60;;;17.20;67.90;;;;;;338907;29;1274;-55
2023/11/14 00:18:24;;;;;;;19.48;11.60;;;17.20;67.90;;;;;;338884;29;907;-54
2023/11/14 00:18:35;;;;;;;20.77;11.75;;;17.20;67.90;;;;;;338806;29;962;-55
2023/11/14 00:18:46;;;;;;;20.07;11.63;;;17.20;67.90;;;;;;338905;29;1020;-55
2023/11/14 00:18:57;;;;;;;19.98;11.77;;;17.20;67.90;;;;;;338928;29;1098;-55
2023/11/14 00:19:08;;;;;;;17.92;11.27;;;17.20;68.00;;;;;;338789;29;902;-55
2023/11/14 00:19:19;;;;;;;17.15;11.23;;;17.20;68.00;;;;;;338889;29;1128;-55
2023/11/14 00:19:30;;;;;;;17.45;11.30;;;17.20;68.00;;;;;;338865;29;874;-56
2023/11/14 00:19:42;;;;;;;18.70;11.35;;;17.20;68.00;;;;;;338784;29;984;-55
2023/11/14 00:19:53;;;;;;;19.34;11.50;;;17.20;68.10;;;;;;338921;29;1842;-55
2023/11/14 00:20:06;;;;;;;17.47;11.57;;;17.20;68.10;;;;;;338836;29;1433;-55
2023/11/14 00:20:17;;;;;;;17.08;11.45;;;17.20;68.10;;;;;;338810;29;1111;-55
2023/11/14 00:20:27;;;;;;;17.48;11.30;;;17.20;68.10;;;;;;338871;29;874;-55
2023/11/14 00:20:40;;;;;;;17.48;11.05;;;17.20;68.10;;;;;;338823;29;1169;-54
2023/11/14 00:20:54;;;;;;;17.80;11.32;;;17.20;68.20;;;;;;338872;29;928;-55
2023/11/14 00:21:05;;;;;;;17.52;11.18;;;17.20;68.20;;;;;;338918;29;1372;-57
2023/11/14 00:21:16;;;;;;;17.10;11.00;;;17.20;68.20;;;;;;338865;29;1052;-56
2023/11/14 00:21:26;;;;;;;15.73;10.90;;;17.20;68.20;;;;;;338798;29;1005;-55
2023/11/14 00:21:37;;;;;;;16.58;11.10;;;17.20;68.20;;;;;;338889;29;815;-55
2023/11/14 00:21:48;;;;;;;15.50;11.13;;;17.20;68.20;;;;;;338948;29;862;-56
2023/11/14 00:21:59;;;;;;;15.98;10.95;;;17.20;68.20;;;;;;338797;29;1071;-55
2023/11/14 00:22:10;;;;;;;15.80;11.15;;;17.20;68.20;;;;;;338882;29;807;-55
2023/11/14 00:22:21;;;;;;;15.68;11.18;;;17.20;68.20;;;;;;338856;29;1124;-56
2023/11/14 00:22:32;;;;;;;15.40;11.45;;;17.20;68.20;;;;;;338846;29;1038;-55
2023/11/14 00:22:42;;;;;;;14.48;11.13;;;17.20;68.20;;;;;;338887;29;917;-54
2023/11/14 00:22:53;;;;;;;14.00;10.90;;;17.20;68.20;;;;;;338930;29;965;-56
2023/11/14 00:23:04;;;;;;;14.75;11.07;;;17.20;68.20;;;;;;338834;29;984;-55
2023/11/14 00:23:17;;;;;;;16.85;11.60;;;17.10;68.20;;;;;;338850;29;1104;-55
2023/11/14 00:23:28;;;;;;;16.70;11.18;;;17.20;68.20;;;;;;338893;29;1036;-55
2023/11/14 00:23:38;;;;;;;17.98;11.02;;;17.10;68.20;;;;;;338754;29;1104;-56
2023/11/14 00:23:50;;;;;;;16.75;10.52;;;17.10;68.20;;;;;;338862;29;891;-55
2023/11/14 00:24:01;;;;;;;17.67;10.57;;;17.10;68.10;;;;;;338888;29;969;-55
2023/11/14 00:24:12;;;;;;;16.52;10.27;;;17.20;68.20;;;;;;338822;29;926;-54
2023/11/14 00:24:23;;;;;;;15.88;10.52;;;17.10;68.20;;;;;;338884;29;1044;-55
2023/11/14 00:24:34;;;;;;;14.32;10.50;;;17.10;68.20;;;;;;338855;29;1093;-54
2023/11/14 00:24:45;;;;;;;14.85;10.70;;;17.20;68.20;;;;;;338770;29;1152;-55
2023/11/14 00:24:57;;;;;;;14.25;10.80;;;17.10;68.20;;;;;;338905;29;989;-55
2023/11/14 00:25:08;;;;;;;17.90;11.20;;;17.10;68.20;;;;;;338921;29;948;-54
2023/11/14 00:25:19;;;;;;;18.60;11.13;;;17.10;68.20;;;;;;338777;29;1022;-54
2023/11/14 00:25:29;;;;;;;19.92;11.55;;;17.10;68.30;;;;;;338854;29;1115;-55
2023/11/14 00:25:40;;;;;;;17.25;11.15;;;17.10;68.20;;;;;;338785;29;1250;-55
2023/11/14 00:25:51;;;;;;;16.33;11.35;;;17.10;68.30;;;;;;338788;29;1514;-54
2023/11/14 00:26:03;;;;;;;16.53;11.10;;;17.10;68.30;;;;;;338902;29;976;-55
2023/11/14 00:26:13;;;;;;;16.13;11.15;;;17.10;68.20;;;;;;338914;29;984;-55
2023/11/14 00:26:24;;;;;;;16.13;11.25;;;17.10;68.20;;;;;;338754;29;1241;-55
2023/11/14 00:26:35;;;;;;;15.63;11.50;;;17.10;68.20;;;;;;338868;29;970;-54
2023/11/14 00:26:46;;;;;;;17.58;11.40;;;17.10;68.20;;;;;;338932;29;1088;-54
2023/11/14 00:26:56;;;;;;;18.10;11.30;;;17.10;68.20;;;;;;338661;29;1907;-55
2023/11/14 00:27:07;;;;;;;18.35;11.38;;;17.10;68.20;;;;;;338856;29;1021;-55
2023/11/14 00:27:18;;;;;;;17.98;11.20;;;17.10;68.20;;;;;;338849;29;985;-55
2023/11/14 00:27:28;;;;;;;16.75;10.75;;;17.10;68.20;;;;;;338809;29;1005;-55
2023/11/14 00:27:39;;;;;;;15.67;10.47;;;17.10;68.20;;;;;;338898;29;831;-55
2023/11/14 00:27:50;;;;;;;15.57;10.63;;;17.10;68.20;;;;;;338893;29;1832;-55
2023/11/14 00:28:01;;;;;;;16.48;11.32;;;17.10;68.10;;;;;;338797;29;2034;-55
2023/11/14 00:28:12;;;;;;;17.07;11.73;;;17.10;68.10;;;;;;338903;29;837;-54
2023/11/14 00:28:23;;;;;;;18.08;12.00;;;17.10;68.10;;;;;;338779;29;1434;-55
2023/11/14 00:28:34;;;;;;;17.50;11.90;;;17.10;68.10;;;;;;338824;29;1032;-55
2023/11/14 00:28:45;;;;;;;17.48;11.80;;;17.10;68.10;;;;;;338972;29;1008;-54
2023/11/14 00:28:56;;;;;;;17.83;11.82;;;17.10;68.10;;;;;;338879;29;807;-55
2023/11/14 00:29:07;;;;;;;17.17;11.80;;;17.10;68.10;;;;;;338821;29;1496;-55
2023/11/14 00:29:18;;;;;;;17.40;11.80;;;17.10;68.10;;;;;;338834;29;997;-55
2023/11/14 00:29:29;;;;;;;18.42;11.80;;;17.10;68.10;;;;;;338920;29;795;-54
2023/11/14 00:29:41;;;;;;;20.05;11.80;;;17.10;68.10;;;;;;338888;29;1020;-56
2023/11/14 00:29:51;;;;;;;19.63;12.07;;;17.10;68.10;;;;;;338912;29;1128;-54
2023/11/14 00:30:02;;;;;;;17.75;11.68;;;17.10;68.10;;;;;;338807;29;1044;-54
2023/11/14 00:30:13;;;;;;;17.05;11.57;;;17.10;68.10;;;;;;338926;29;969;-53
2023/11/14 00:30:24;;;;;;;17.05;11.35;;;17.10;68.10;;;;;;338927;29;890;-55
2023/11/14 00:30:36;;;;;;;18.30;11.40;;;17.10;68.10;;;;;;338876;29;1004;-53
2023/11/14 00:30:47;;;;;;;19.27;11.30;;;17.10;68.10;;;;;;338887;29;1075;-55
2023/11/14 00:30:57;;;;;;;19.35;11.65;;;17.10;68.00;;;;;;338879;29;976;-54
2023/11/14 00:31:08;;;;;;;19.70;11.57;;;17.10;68.00;;;;;;338914;29;965;-55
2023/11/14 00:31:19;;;;;;;21.20;11.95;;;17.10;68.00;;;;;;338831;29;1213;-55
2023/11/14 00:31:30;;;;;;;20.67;11.57;;;17.10;68.00;;;;;;338800;29;839;-52
2023/11/14 00:31:40;;;;;;;21.50;11.67;;;17.10;68.00;;;;;;338877;29;1212;-54
2023/11/14 00:31:51;;;;;;;20.20;11.45;;;17.10;68.00;;;;;;338858;29;1008;-55
2023/11/14 00:32:02;;;;;;;19.58;11.85;;;17.10;68.00;;;;;;338809;29;1101;-56
2023/11/14 00:32:13;;;;;;;18.17;11.85;;;17.10;68.00;;;;;;338860;29;1008;-54
2023/11/14 00:32:24;;;;;;;17.77;12.25;;;17.10;68.10;;;;;;338868;29;886;-54
2023/11/14 00:32:34;;;;;;;17.98;12.75;;;17.10;68.10;;;;;;338824;29;1040;-54
2023/11/14 00:32:45;;;;;;;17.90;13.00;;;17.00;68.10;;;;;;338855;29;906;-57
2023/11/14 00:32:56;;;;;;;18.27;12.85;;;17.10;68.10;;;;;;338845;29;922;-54
2023/11/14 00:33:06;;;;;;;17.60;12.68;;;17.10;68.10;;;;;;338906;29;1830;-55
2023/11/14 00:33:17;;;;;;;17.17;12.85;;;17.00;68.10;;;;;;338879;29;1120;-54
2023/11/14 00:33:28;;;;;;;17.83;12.60;;;17.10;68.10;;;;;;338825;29;1601;-54
2023/11/14 00:33:38;;;;;;;17.83;12.70;;;17.00;68.10;;;;;;338825;29;1869;-54
2023/11/14 00:33:49;;;;;;;18.23;13.02;;;17.00;68.10;;;;;;338889;29;923;-55
2023/11/14 00:34:00;;;;;;;19.20;13.60;;;17.00;68.10;;;;;;338897;29;898;-54
2023/11/14 00:34:11;;;;;;;21.40;13.95;;;17.00;68.10;;;;;;338923;29;902;-56
2023/11/14 00:34:22;;;;;;;22.57;14.30;;;17.00;68.10;;;;;;338768;29;942;-54
2023/11/14 00:34:33;;;;;;;22.52;14.07;;;17.00;68.10;;;;;;338946;29;937;-55
2023/11/14 00:34:43;;;;;;;20.97;14.07;;;17.00;68.10;;;;;;338839;29;1298;-54
2023/11/14 00:34:54;;;;;;;21.38;14.25;;;17.00;68.10;;;;;;338868;29;1010;-55
2023/11/14 00:35:05;;;;;;;19.77;14.45;;;17.00;68.20;;;;;;338844;29;1042;-54
2023/11/14 00:35:17;;;;;;;22.33;14.45;;;17.00;68.20;;;;;;338879;29;1830;-55
2023/11/14 00:35:27;;;;;;;22.10;14.75;;;17.00;68.20;;;;;;338854;29;1132;-55
2023/11/14 00:35:38;;;;;;;22.25;15.10;;;17.00;68.20;;;;;;338822;29;1100;-55
2023/11/14 00:35:49;;;;;;;23.10;15.98;;;17.00;68.20;;;;;;338835;29;981;-54
2023/11/14 00:36:00;;;;;;;25.40;17.23;;;17.00;68.20;;;;;;338807;29;1212;-55
2023/11/14 00:36:10;;;;;;;26.67;17.58;;;17.00;68.10;;;;;;338833;29;1822;-55
2023/11/14 00:36:21;;;;;;;25.53;17.30;;;17.00;68.10;;;;;;338856;29;1052;-55
2023/11/14 00:36:32;;;;;;;24.98;16.95;;;17.00;68.10;;;;;;338789;29;907;-55
2023/11/14 00:36:43;;;;;;;25.75;17.38;;;17.00;68.10;;;;;;338856;29;1141;-54
2023/11/14 00:36:53;;;;;;;26.45;18.02;;;17.00;68.10;;;;;;338881;29;985;-54
2023/11/14 00:37:04;;;;;;;26.93;18.60;;;17.00;68.10;;;;;;338876;29;1067;-55
2023/11/14 00:37:16;;;;;;;24.80;18.80;;;16.90;68.10;;;;;;338811;29;985;-55
2023/11/14 00:37:28;;;;;;;24.52;19.02;;;16.90;68.10;;;;;;338935;29;905;-55
2023/11/14 00:37:39;;;;;;;25.08;18.75;;;16.90;68.10;;;;;;338899;29;1083;-55
2023/11/14 00:37:50;;;;;;;26.05;18.52;;;16.90;68.10;;;;;;338803;29;1089;-55
2023/11/14 00:38:00;;;;;;;27.52;18.35;;;16.90;68.10;;;;;;338753;29;1159;-55
2023/11/14 00:38:11;;;;;;;26.75;17.90;;;16.90;68.10;;;;;;338871;29;931;-55
2023/11/14 00:38:22;;;;;;;26.90;17.73;;;16.90;68.10;;;;;;338918;29;873;-55
2023/11/14 00:38:33;;;;;;;24.13;17.20;;;17.00;68.10;;;;;;338881;29;1020;-55
2023/11/14 00:38:43;;;;;;;24.83;16.98;;;16.90;68.10;;;;;;338927;29;839;-55
2023/11/14 00:38:59;;;;;;;23.35;16.15;;;16.90;68.10;;;;;;338714;29;1284;-54
2023/11/14 00:39:11;;;;;;;23.27;16.08;;;16.90;68.10;;;;;;338850;29;1183;-55
2023/11/14 00:39:22;;;;;;;23.45;16.17;;;16.90;68.10;;;;;;338889;29;1123;-55
2023/11/14 00:39:32;;;;;;;22.92;16.58;;;16.90;68.10;;;;;;338905;29;925;-55
2023/11/14 00:39:43;;;;;;;22.20;16.65;;;16.90;68.10;;;;;;338846;29;905;-54
2023/11/14 00:39:54;;;;;;;22.63;16.70;;;16.90;68.10;;;;;;338885;29;942;-54
2023/11/14 00:40:05;;;;;;;22.30;16.60;;;16.90;68.20;;;;;;338868;29;870;-55
2023/11/14 00:40:16;;;;;;;21.73;16.52;;;16.90;68.20;;;;;;338847;29;1469;-54
2023/11/14 00:40:27;;;;;;;22.15;16.40;;;16.90;68.20;;;;;;338776;29;1365;-54
2023/11/14 00:40:39;;;;;;;24.33;16.77;;;16.90;68.20;;;;;;338895;29;1024;-54
2023/11/14 00:40:49;;;;;;;26.42;16.75;;;16.90;68.20;;;;;;338899;29;931;-54
2023/11/14 00:41:01;;;;;;;26.13;16.65;;;16.90;68.20;;;;;;338878;29;949;-54
2023/11/14 00:41:12;;;;;;;25.17;16.63;;;16.90;68.20;;;;;;338884;29;1025;-55
2023/11/14 00:41:22;;;;;;;23.58;17.13;;;16.90;68.20;;;;;;338799;29;1498;-55
2023/11/14 00:41:33;;;;;;;22.83;17.07;;;16.90;68.20;;;;;;338702;29;1535;-54
2023/11/14 00:41:46;;;;;;;26.25;17.10;;;16.90;68.20;;;;;;338968;29;794;-55
2023/11/14 00:41:59;;;;;;;26.98;16.70;;;16.90;68.20;;;;;;338880;29;1134;-55
2023/11/14 00:42:12;;;;;;;25.88;16.42;;;16.90;68.20;;;;;;338907;29;1013;-55
2023/11/14 00:42:24;;;;;;;23.98;16.20;;;16.90;68.20;;;;;;338809;29;1022;-55
2023/11/14 00:42:34;;;;;;;24.38;16.08;;;16.90;68.20;;;;;;338844;29;1202;-55
2023/11/14 00:42:45;;;;;;;23.75;16.50;;;16.90;68.20;;;;;;338899;29;1060;-54
2023/11/14 00:42:56;;;;;;;23.73;16.00;;;16.90;68.20;;;;;;338836;29;1020;-54
2023/11/14 00:43:07;;;;;;;23.67;16.02;;;16.90;68.20;;;;;;338739;29;1097;-54
2023/11/14 00:43:18;;;;;;;23.90;15.70;;;16.90;68.20;;;;;;338913;29;889;-55
2023/11/14 00:43:29;;;;;;;22.38;14.70;;;16.90;68.20;;;;;;338922;29;1024;-54
2023/11/14 00:43:40;;;;;;;21.70;13.83;;;16.90;68.20;;;;;;338905;29;873;-54
2023/11/14 00:44:38;;;;;;;19.50;13.20;;;16.90;68.20;;;;;;338807;29;1096;-55
2023/11/14 00:45:18;;;;;;;20.75;13.60;;;16.80;68.10;;;;;;338656;29;1297;-55
2023/11/14 00:46:05;;;;;;;18.67;13.07;;;16.90;68.10;;;;;;338872;29;1017;-55
2023/11/14 00:46:16;;;;;;;18.30;12.38;;;16.90;68.20;;;;;;338694;29;1260;-54
2023/11/14 00:46:28;;;;;;;18.73;12.90;;;16.80;68.20;;;;;;338808;29;1083;-54
2023/11/14 00:46:38;;;;;;;19.52;13.10;;;16.90;68.20;;;;;;338940;29;889;-54
2023/11/14 00:46:49;;;;;;;18.13;12.63;;;16.80;68.20;;;;;;338735;29;1910;-55
2023/11/14 00:47:00;;;;;;;18.73;12.90;;;16.80;68.20;;;;;;338929;29;830;-55
2023/11/14 00:47:11;;;;;;;19.20;13.07;;;16.90;68.20;;;;;;338873;29;977;-55
2023/11/14 00:47:21;;;;;;;19.80;13.15;;;16.90;68.20;;;;;;338813;29;1001;-54
2023/11/14 00:47:33;;;;;;;18.90;13.02;;;16.90;68.10;;;;;;338831;29;1044;-55
2023/11/14 00:47:43;;;;;;;17.70;12.85;;;16.80;68.10;;;;;;338895;29;996;-54
2023/11/14 00:47:54;;;;;;;17.40;12.68;;;16.90;68.20;;;;;;338852;29;1060;-54
2023/11/14 00:48:05;;;;;;;18.58;12.95;;;16.90;68.10;;;;;;338930;29;957;-54
2023/11/14 00:48:16;;;;;;;19.23;12.80;;;16.80;68.20;;;;;;338884;29;912;-53
2023/11/14 00:48:27;;;;;;;18.80;12.67;;;16.90;68.20;;;;;;338748;29;1029;-56
2023/11/14 00:48:39;;;;;;;18.00;12.65;;;16.90;68.20;;;;;;338877;29;877;-55
2023/11/14 00:48:49;;;;;;;18.70;12.82;;;16.80;68.20;;;;;;338912;29;1136;-55
2023/11/14 00:49:00;;;;;;;20.13;13.15;;;16.90;68.20;;;;;;338850;29;1029;-54
2023/11/14 00:49:11;;;;;;;19.58;12.85;;;16.80;68.20;;;;;;338886;29;1032;-55
2023/11/14 00:49:22;;;;;;;19.00;12.43;;;16.80;68.20;;;;;;338753;29;1033;-54
2023/11/14 00:49:33;;;;;;;19.90;12.88;;;16.80;68.20;;;;;;338839;29;1072;-56
2023/11/14 00:49:43;;;;;;;20.50;13.73;;;16.80;68.20;;;;;;338826;29;1139;-55
2023/11/14 00:49:54;;;;;;;20.92;14.43;;;16.80;68.20;;;;;;338883;29;1021;-54
2023/11/14 00:50:07;;;;;;;22.05;15.23;;;16.80;68.20;;;;;;338901;29;976;-55
2023/11/14 00:50:17;;;;;;;22.73;15.15;;;16.80;68.30;;;;;;338813;29;1080;-54
2023/11/14 00:50:28;;;;;;;23.20;15.43;;;16.80;68.30;;;;;;338804;29;1009;-54
2023/11/14 00:50:39;;;;;;;23.17;16.08;;;16.80;68.30;;;;;;338773;29;1105;-59
2023/11/14 00:50:50;;;;;;;24.70;16.75;;;16.80;68.30;;;;;;338833;29;989;-55
2023/11/14 00:51:01;;;;;;;25.50;16.95;;;16.80;68.30;;;;;;338941;29;1111;-55
2023/11/14 00:51:12;;;;;;;26.25;16.63;;;16.80;68.30;;;;;;338778;29;934;-55
2023/11/14 00:51:22;;;;;;;23.58;15.80;;;16.80;68.20;;;;;;338898;29;1080;-55
2023/11/14 00:51:34;;;;;;;21.60;15.25;;;16.80;68.20;;;;;;338897;29;802;-55
2023/11/14 00:51:44;;;;;;;20.77;14.63;;;16.90;68.20;;;;;;338830;29;1609;-54
2023/11/14 00:51:55;;;;;;;21.48;14.63;;;16.80;68.20;;;;;;338906;29;984;-55
2023/11/14 00:52:06;;;;;;;20.47;14.27;;;16.80;68.20;;;;;;338828;29;910;-55
2023/11/14 00:52:18;;;;;;;19.45;13.75;;;16.80;68.20;;;;;;338857;29;1017;-55
2023/11/14 00:52:29;;;;;;;18.35;13.30;;;16.80;68.20;;;;;;338891;29;1013;-54
2023/11/14 00:52:40;;;;;;;18.73;13.43;;;16.80;68.20;;;;;;338826;29;973;-55
2023/11/14 00:52:50;;;;;;;18.17;13.30;;;16.80;68.20;;;;;;338828;29;1176;-55
2023/11/14 00:53:01;;;;;;;17.60;13.05;;;16.80;68.30;;;;;;338802;29;1003;-54
2023/11/14 00:53:12;;;;;;;16.93;12.77;;;16.80;68.30;;;;;;338883;29;1016;-55
2023/11/14 00:53:23;;;;;;;17.35;12.63;;;16.80;68.30;;;;;;338832;29;1016;-54
2023/11/14 00:53:33;;;;;;;17.83;12.65;;;16.80;68.30;;;;;;338811;29;1539;-54
2023/11/14 00:53:44;;;;;;;18.20;12.48;;;16.80;68.30;;;;;;338858;29;918;-55
2023/11/14 00:53:56;;;;;;;19.58;12.48;;;16.80;68.30;;;;;;338818;29;1012;-55
2023/11/14 00:54:08;;;;;;;19.88;13.10;;;16.80;68.30;;;;;;338838;29;1183;-55
2023/11/14 00:54:19;;;;;;;18.33;13.52;;;16.80;68.30;;;;;;338830;29;1029;-55
2023/11/14 00:54:30;;;;;;;17.97;13.80;;;16.80;68.30;;;;;;338816;29;1023;-55
2023/11/14 00:54:41;;;;;;;20.73;14.02;;;16.80;68.30;;;;;;338918;29;1075;-54
2023/11/14 00:54:52;;;;;;;21.98;14.00;;;16.70;68.30;;;;;;338733;29;1159;-55
2023/11/14 00:55:03;;;;;;;21.58;13.95;;;16.80;68.30;;;;;;338839;29;1001;-55
2023/11/14 00:55:14;;;;;;;18.92;13.65;;;16.80;68.30;;;;;;338883;29;1048;-54
2023/11/14 00:55:24;;;;;;;18.08;13.32;;;16.80;68.40;;;;;;338820;29;1088;-55
2023/11/14 00:55:35;;;;;;;18.23;13.07;;;16.80;68.40;;;;;;338835;29;1805;-54
2023/11/14 00:55:46;;;;;;;19.47;13.07;;;16.70;68.40;;;;;;338860;29;898;-56
2023/11/14 00:55:57;;;;;;;19.83;13.13;;;16.80;68.40;;;;;;338770;29;969;-55
2023/11/14 00:56:09;;;;;;;19.02;13.15;;;16.80;68.50;;;;;;338878;29;1032;-55
2023/11/14 00:56:20;;;;;;;18.85;12.88;;;16.80;68.50;;;;;;338801;29;1191;-55
2023/11/14 00:56:31;;;;;;;16.57;12.47;;;16.70;68.40;;;;;;338786;29;1093;-54
2023/11/14 00:56:42;;;;;;;17.73;12.40;;;16.70;68.40;;;;;;338836;29;1855;-54
2023/11/14 00:56:53;;;;;;;17.88;12.60;;;16.70;68.50;;;;;;338811;29;965;-55
2023/11/14 00:57:04;;;;;;;17.42;12.60;;;16.70;68.50;;;;;;338892;29;874;-55
2023/11/14 00:57:15;;;;;;;16.90;12.90;;;16.70;68.50;;;;;;338837;29;1041;-54
2023/11/14 00:57:25;;;;;;;18.13;12.65;;;16.70;68.50;;;;;;338822;29;1037;-54
2023/11/14 00:57:36;;;;;;;18.90;13.13;;;16.70;68.60;;;;;;338849;29;1164;-55
2023/11/14 00:57:47;;;;;;;18.70;12.90;;;16.70;68.60;;;;;;338870;29;901;-53
2023/11/14 00:57:59;;;;;;;18.43;12.87;;;16.70;68.60;;;;;;338758;29;1044;-55
2023/11/14 00:58:11;;;;;;;19.90;12.25;;;16.70;68.60;;;;;;338899;29;985;-55
2023/11/14 00:58:22;;;;;;;18.95;12.52;;;16.70;68.60;;;;;;338814;29;1119;-54
2023/11/14 00:58:34;;;;;;;17.20;12.68;;;16.70;68.60;;;;;;338817;29;1159;-54
2023/11/14 00:58:45;;;;;;;16.95;13.02;;;16.70;68.70;;;;;;338955;29;856;-54
2023/11/14 00:58:56;;;;;;;18.00;13.05;;;16.70;68.70;;;;;;338843;29;1222;-55
2023/11/14 00:59:08;;;;;;;18.43;13.00;;;16.70;68.70;;;;;;338852;29;1076;-54
2023/11/14 00:59:20;;;;;;;18.30;12.68;;;16.70;68.70;;;;;;338814;29;1055;-54
2023/11/14 00:59:31;;;;;;;17.73;12.35;;;16.70;68.70;;;;;;338862;29;1063;-54
2023/11/14 00:59:41;;;;;;;17.08;12.15;;;16.70;68.70;;;;;;338896;29;969;-53
2023/11/14 00:59:52;;;;;;;16.57;12.17;;;16.70;68.70;;;;;;338815;29;1806;-54